Lake Intervale, New Jersey
Current Conditions -  °F | °C
As of 8:53 PM on Monday 24 Nov 2014 (Local Time) from KCDW Reporting Station
Clear Clear  
Wind Chill: 65°   Ceiling: Unl
Heat Index: 65°   Visibility: 10mi
Dew Point: 54°   Wind: 6mph
Humidity: 68%   Direction: 220°SW
Pressure: 29.7"   Gusts: NA
Location:  40.929°N, 74.4211°W
Report Text: KCDW 250153Z AUTO 22005KT 10SM CLR 18/12 A2970 RMK AO2 SLP062 T01830122 TSNO
Loading
Personal Weather Stations






























Interactive Weather Map New forecast layout! Learn more

10-Day Weather Forecast

Advertisements
Track Severe Weather on mobile